EXS33P GCLA-EGCC
Flight info
| Callsign | EXS33P |
|---|---|
| Flight time | N/A |
| Altitude | 36000 |
| Route | KONBA UN866 BEXAL DCT OLBOD DCT ORSOS DCT TERVA DCT ASMOV DCT AGADO DCT KORUL DCT KOLEK DCT EBOMO DCT RUSIB DCT NOZHU/N0434F370 DCT SHIRI DCT TOJAQ DCT EPACE DCT ACCOP DCT MOCQO P16 AXCIS |
| Aircraft | B738/M-SDE2E3FGHIRWXY/LB1 |
Departure
| Time | 2026-04-30 19:26 |
|---|---|
| Airport | La Palma Airport (GCLA) |
Arrival
| Time | N/A |
|---|---|
| Airport | Manchester Airport (EGCC) |
| Time | Latitude | Longitude | Altitude | Speed | Heading |
|---|---|---|---|---|---|
| 2026-04-30 19:07 | 28.62200 | -17.75362 | 113 ft | 0 kts | 89° |
| 2026-04-30 19:15 | 28.62200 | -17.75374 | 109 ft | 4 kts | 89° |
| 2026-04-30 19:16 | 28.62200 | -17.75404 | 111 ft | 2 kts | 89° |
| 2026-04-30 19:16 | 28.62197 | -17.75429 | 110 ft | 4 kts | 52° |
| 2026-04-30 19:16 | 28.62164 | -17.75441 | 111 ft | 1 kts | 359° |
| 2026-04-30 19:17 | 28.62163 | -17.75441 | 111 ft | 0 kts | 359° |
| 2026-04-30 19:20 | 28.62166 | -17.75441 | 111 ft | 2 kts | 359° |
| 2026-04-30 19:21 | 28.62203 | -17.75442 | 111 ft | 9 kts | 359° |
| 2026-04-30 19:21 | 28.62360 | -17.75445 | 110 ft | 12 kts | 359° |
| 2026-04-30 19:22 | 28.62586 | -17.75462 | 109 ft | 19 kts | 328° |
| 2026-04-30 19:22 | 28.63007 | -17.75567 | 94 ft | 31 kts | 359° |
| 2026-04-30 19:23 | 28.63591 | -17.75553 | 71 ft | 13 kts | 1° |
| 2026-04-30 19:24 | 28.63595 | -17.75579 | 68 ft | 3 kts | 175° |
| 2026-04-30 19:24 | 28.63587 | -17.75579 | 72 ft | 0 kts | 179° |
| 2026-04-30 19:25 | 28.62188 | -17.75553 | 125 ft | 166 kts | 178° |
| 2026-04-30 19:26 | 28.59800 | -17.75275 | 1766 ft | 179 kts | 154° |
| 2026-04-30 19:26 | 28.58301 | -17.73083 | 3329 ft | 179 kts | 121° |
| 2026-04-30 19:26 | 28.57648 | -17.71821 | 3846 ft | 194 kts | 121° |
| 2026-04-30 19:27 | 28.56239 | -17.69066 | 5130 ft | 206 kts | 122° |
| 2026-04-30 19:27 | 28.54661 | -17.66223 | 6122 ft | 224 kts | 126° |
| 2026-04-30 19:28 | 28.54088 | -17.65211 | 6364 ft | 234 kts | 124° |
| 2026-04-30 19:28 | 28.52368 | -17.61980 | 7518 ft | 240 kts | 124° |
| 2026-04-30 19:29 | 28.50573 | -17.58643 | 8407 ft | 257 kts | 124° |
| 2026-04-30 19:29 | 28.49638 | -17.56916 | 8687 ft | 255 kts | 125° |
| 2026-04-30 19:30 | 28.46848 | -17.51798 | 9542 ft | 261 kts | 126° |
| 2026-04-30 19:30 | 28.44782 | -17.48039 | 10186 ft | 297 kts | 125° |
| 2026-04-30 19:31 | 28.43324 | -17.43623 | 10678 ft | 311 kts | 94° |
| 2026-04-30 19:31 | 28.43412 | -17.41075 | 10813 ft | 335 kts | 86° |
| 2026-04-30 19:31 | 28.43992 | -17.35507 | 11457 ft | 368 kts | 84° |
| 2026-04-30 19:32 | 28.44315 | -17.32602 | 12096 ft | 373 kts | 84° |
| 2026-04-30 19:32 | 28.44627 | -17.29657 | 12756 ft | 377 kts | 84° |
| 2026-04-30 19:32 | 28.44927 | -17.26677 | 13383 ft | 382 kts | 84° |
| 2026-04-30 19:32 | 28.45218 | -17.23657 | 13980 ft | 387 kts | 84° |
| 2026-04-30 19:33 | 28.45505 | -17.20595 | 14525 ft | 392 kts | 84° |
| 2026-04-30 19:33 | 28.45789 | -17.17503 | 15089 ft | 396 kts | 84° |
| 2026-04-30 19:33 | 28.46074 | -17.14370 | 15630 ft | 400 kts | 84° |
| 2026-04-30 19:33 | 28.46359 | -17.11209 | 16199 ft | 405 kts | 84° |
| 2026-04-30 19:34 | 28.46646 | -17.08008 | 16745 ft | 409 kts | 84° |
| 2026-04-30 19:34 | 28.46936 | -17.04773 | 17292 ft | 414 kts | 84° |
| 2026-04-30 19:34 | 28.47523 | -16.98205 | 18387 ft | 422 kts | 84° |
| 2026-04-30 19:35 | 28.47819 | -16.94869 | 18854 ft | 426 kts | 84° |
| 2026-04-30 19:35 | 28.48118 | -16.91504 | 19344 ft | 429 kts | 84° |
| 2026-04-30 19:35 | 28.48474 | -16.88130 | 19871 ft | 431 kts | 76° |
| 2026-04-30 19:35 | 28.49617 | -16.85025 | 20462 ft | 425 kts | 52° |
| 2026-04-30 19:36 | 28.51626 | -16.82615 | 21029 ft | 418 kts | 33° |
| 2026-04-30 19:36 | 28.54097 | -16.80916 | 21487 ft | 415 kts | 21° |
| 2026-04-30 19:36 | 28.59392 | -16.78144 | 22372 ft | 423 kts | 19° |
| 2026-04-30 19:37 | 28.62084 | -16.76770 | 22844 ft | 426 kts | 19° |
| 2026-04-30 19:37 | 28.64791 | -16.75377 | 23331 ft | 429 kts | 19° |
| 2026-04-30 19:37 | 28.67516 | -16.73959 | 23760 ft | 432 kts | 20° |
| 2026-04-30 19:37 | 28.70254 | -16.72521 | 24133 ft | 435 kts | 20° |
| 2026-04-30 19:38 | 28.73009 | -16.71063 | 24512 ft | 438 kts | 20° |
| 2026-04-30 19:38 | 28.75782 | -16.69590 | 24883 ft | 441 kts | 20° |
| 2026-04-30 19:38 | 28.78567 | -16.68106 | 25288 ft | 443 kts | 20° |
| 2026-04-30 19:38 | 28.81368 | -16.66611 | 25638 ft | 446 kts | 20° |
| 2026-04-30 19:39 | 28.84192 | -16.65103 | 25983 ft | 450 kts | 20° |
| 2026-04-30 19:39 | 28.87033 | -16.63586 | 26324 ft | 452 kts | 20° |
| 2026-04-30 19:39 | 28.89890 | -16.62059 | 26679 ft | 455 kts | 20° |
| 2026-04-30 19:39 | 28.92766 | -16.60521 | 27023 ft | 458 kts | 20° |
| 2026-04-30 19:40 | 28.95657 | -16.58974 | 27352 ft | 460 kts | 20° |
| 2026-04-30 19:40 | 28.98566 | -16.57417 | 27686 ft | 463 kts | 20° |
| 2026-04-30 19:40 | 29.01493 | -16.55849 | 28006 ft | 466 kts | 20° |
| 2026-04-30 19:40 | 29.04391 | -16.54296 | 28316 ft | 468 kts | 20° |
| 2026-04-30 19:41 | 29.07348 | -16.52711 | 28623 ft | 471 kts | 20° |
| 2026-04-30 19:41 | 29.10319 | -16.51116 | 28961 ft | 473 kts | 20° |
| 2026-04-30 19:41 | 29.13308 | -16.49511 | 29262 ft | 476 kts | 20° |
| 2026-04-30 19:41 | 29.16308 | -16.47899 | 29562 ft | 478 kts | 20° |
| 2026-04-30 19:42 | 29.19328 | -16.46275 | 29864 ft | 480 kts | 20° |
| 2026-04-30 19:42 | 29.22359 | -16.44645 | 30150 ft | 483 kts | 20° |
| 2026-04-30 19:42 | 29.25403 | -16.43006 | 30401 ft | 485 kts | 20° |
| 2026-04-30 19:42 | 29.28463 | -16.41357 | 30672 ft | 486 kts | 20° |
| 2026-04-30 19:43 | 29.31521 | -16.39708 | 30997 ft | 485 kts | 20° |
| 2026-04-30 19:43 | 29.34567 | -16.38062 | 31395 ft | 483 kts | 20° |
| 2026-04-30 19:43 | 29.37593 | -16.36426 | 31839 ft | 480 kts | 20° |
| 2026-04-30 19:44 | 29.43607 | -16.33174 | 32591 ft | 476 kts | 19° |
| 2026-04-30 19:44 | 29.46598 | -16.31556 | 32953 ft | 474 kts | 19° |
| 2026-04-30 19:44 | 29.49576 | -16.29945 | 33330 ft | 472 kts | 19° |
| 2026-04-30 19:44 | 29.52538 | -16.28340 | 33705 ft | 470 kts | 19° |
| 2026-04-30 19:45 | 29.55491 | -16.26740 | 34061 ft | 468 kts | 19° |
| 2026-04-30 19:45 | 29.58433 | -16.25145 | 34349 ft | 467 kts | 19° |
| 2026-04-30 19:45 | 29.61369 | -16.23553 | 34609 ft | 466 kts | 19° |
| 2026-04-30 19:45 | 29.64299 | -16.21963 | 34843 ft | 466 kts | 19° |
| 2026-04-30 19:46 | 29.67229 | -16.20372 | 35094 ft | 465 kts | 19° |
| 2026-04-30 19:46 | 29.70152 | -16.18783 | 35346 ft | 465 kts | 19° |
| 2026-04-30 19:46 | 29.73076 | -16.17193 | 35575 ft | 464 kts | 19° |
| 2026-04-30 19:46 | 29.75994 | -16.15604 | 35794 ft | 464 kts | 19° |
| 2026-04-30 19:47 | 29.78910 | -16.14016 | 36035 ft | 463 kts | 19° |
| 2026-04-30 19:47 | 29.80838 | -16.12965 | 36148 ft | 464 kts | 19° |
| 2026-04-30 19:47 | 29.84764 | -16.10827 | 36133 ft | 468 kts | 19° |
| 2026-04-30 19:48 | 29.90642 | -16.07618 | 36129 ft | 466 kts | 19° |
| 2026-04-30 19:48 | 29.96424 | -16.04452 | 36143 ft | 461 kts | 19° |
| 2026-04-30 19:49 | 30.02214 | -16.01283 | 36140 ft | 460 kts | 19° |
| 2026-04-30 19:49 | 30.10877 | -15.96535 | 36140 ft | 459 kts | 19° |
| 2026-04-30 19:50 | 30.16646 | -15.93368 | 36133 ft | 459 kts | 19° |
| 2026-04-30 19:50 | 30.22421 | -15.90193 | 36135 ft | 460 kts | 19° |
| 2026-04-30 19:51 | 30.28201 | -15.87011 | 36152 ft | 461 kts | 19° |
| 2026-04-30 19:51 | 30.33998 | -15.83815 | 36142 ft | 462 kts | 19° |
| 2026-04-30 19:52 | 30.39805 | -15.80610 | 36138 ft | 463 kts | 19° |
| 2026-04-30 19:52 | 30.45627 | -15.77391 | 36138 ft | 464 kts | 19° |
| 2026-04-30 19:53 | 30.51463 | -15.74161 | 36134 ft | 465 kts | 19° |
| 2026-04-30 19:53 | 30.57307 | -15.70922 | 36158 ft | 466 kts | 19° |
| 2026-04-30 19:54 | 30.63165 | -15.67670 | 36139 ft | 467 kts | 19° |
| 2026-04-30 19:54 | 30.69029 | -15.64411 | 36138 ft | 468 kts | 19° |
| 2026-04-30 19:55 | 30.74899 | -15.61144 | 36137 ft | 468 kts | 19° |
| 2026-04-30 19:55 | 30.80765 | -15.57874 | 36138 ft | 468 kts | 19° |
| 2026-04-30 19:56 | 30.86629 | -15.54602 | 36155 ft | 467 kts | 18° |
| 2026-04-30 19:56 | 30.92492 | -15.51326 | 36145 ft | 467 kts | 18° |
| 2026-04-30 19:57 | 30.98348 | -15.48049 | 36136 ft | 467 kts | 18° |
| 2026-04-30 19:57 | 31.04198 | -15.44771 | 36139 ft | 466 kts | 18° |
| 2026-04-30 19:58 | 31.10035 | -15.41495 | 36139 ft | 465 kts | 18° |
| 2026-04-30 19:58 | 31.15871 | -15.38216 | 36153 ft | 465 kts | 19° |
| 2026-04-30 19:59 | 31.21667 | -15.34955 | 36146 ft | 466 kts | 19° |
| 2026-04-30 20:00 | 31.30414 | -15.29992 | 36141 ft | 468 kts | 22° |
| 2026-04-30 20:00 | 31.36007 | -15.25876 | 36146 ft | 474 kts | 27° |
| 2026-04-30 20:01 | 31.44153 | -15.19368 | 36168 ft | 475 kts | 27° |
| 2026-04-30 20:01 | 31.49641 | -15.15044 | 36148 ft | 475 kts | 27° |
| 2026-04-30 20:02 | 31.57909 | -15.08599 | 36141 ft | 476 kts | 27° |
| 2026-04-30 20:03 | 31.66188 | -15.02144 | 36138 ft | 476 kts | 27° |
| 2026-04-30 20:03 | 31.71707 | -14.97830 | 36139 ft | 477 kts | 27° |
| 2026-04-30 20:04 | 31.77226 | -14.93509 | 36148 ft | 477 kts | 27° |
| 2026-04-30 20:05 | 31.85507 | -14.87013 | 36136 ft | 477 kts | 27° |
| 2026-04-30 20:05 | 31.93772 | -14.80515 | 36142 ft | 476 kts | 27° |
| 2026-04-30 20:06 | 31.99274 | -14.76181 | 36141 ft | 475 kts | 27° |
| 2026-04-30 20:06 | 32.04772 | -14.71845 | 36150 ft | 475 kts | 27° |
| 2026-04-30 20:07 | 32.10265 | -14.67506 | 36144 ft | 475 kts | 27° |
| 2026-04-30 20:08 | 32.18500 | -14.60990 | 36147 ft | 475 kts | 27° |
| 2026-04-30 20:08 | 32.23948 | -14.56670 | 36152 ft | 475 kts | 27° |
| 2026-04-30 20:09 | 32.29471 | -14.52286 | 36143 ft | 475 kts | 27° |
| 2026-04-30 20:09 | 32.37699 | -14.45741 | 36152 ft | 475 kts | 26° |
| 2026-04-30 20:10 | 32.45926 | -14.39182 | 36144 ft | 476 kts | 27° |
| 2026-04-30 20:11 | 32.54120 | -14.32634 | 36146 ft | 476 kts | 27° |
| 2026-04-30 20:11 | 32.59610 | -14.28240 | 36149 ft | 476 kts | 27° |
| 2026-04-30 20:12 | 32.67843 | -14.21637 | 36147 ft | 476 kts | 27° |
| 2026-04-30 20:13 | 32.73325 | -14.17231 | 36150 ft | 476 kts | 27° |
| 2026-04-30 20:13 | 32.78808 | -14.12819 | 36144 ft | 476 kts | 27° |
| 2026-04-30 20:14 | 32.84287 | -14.08402 | 36145 ft | 475 kts | 27° |
| 2026-04-30 20:14 | 32.88833 | -14.04733 | 36167 ft | 475 kts | 27° |
| 2026-04-30 20:15 | 32.94301 | -14.00314 | 36148 ft | 475 kts | 27° |
| 2026-04-30 20:15 | 32.99770 | -13.95886 | 36145 ft | 475 kts | 27° |
| 2026-04-30 20:16 | 33.05232 | -13.91457 | 36153 ft | 475 kts | 27° |
| 2026-04-30 20:16 | 33.10690 | -13.87026 | 36148 ft | 475 kts | 27° |
| 2026-04-30 20:17 | 33.16144 | -13.82589 | 36155 ft | 474 kts | 27° |
| 2026-04-30 20:17 | 33.21588 | -13.78137 | 36156 ft | 475 kts | 27° |
| 2026-04-30 20:18 | 33.27028 | -13.73674 | 36151 ft | 475 kts | 27° |
| 2026-04-30 20:18 | 33.32469 | -13.69204 | 36148 ft | 474 kts | 27° |
| 2026-04-30 20:19 | 33.37908 | -13.64729 | 36148 ft | 474 kts | 27° |
| 2026-04-30 20:19 | 33.43343 | -13.60252 | 36153 ft | 474 kts | 27° |
| 2026-04-30 20:20 | 33.48774 | -13.55772 | 36174 ft | 475 kts | 27° |
| 2026-04-30 20:20 | 33.54216 | -13.51275 | 36166 ft | 475 kts | 27° |
| 2026-04-30 20:21 | 33.59663 | -13.46768 | 36168 ft | 475 kts | 27° |
| 2026-04-30 20:21 | 33.65105 | -13.42256 | 36154 ft | 476 kts | 27° |
| 2026-04-30 20:22 | 33.70549 | -13.37736 | 36154 ft | 476 kts | 27° |
| 2026-04-30 20:22 | 33.75994 | -13.33209 | 36177 ft | 476 kts | 27° |
| 2026-04-30 20:23 | 33.81444 | -13.28670 | 36164 ft | 477 kts | 27° |
| 2026-04-30 20:23 | 33.86893 | -13.24125 | 36155 ft | 477 kts | 27° |
| 2026-04-30 20:24 | 33.92347 | -13.19567 | 36156 ft | 477 kts | 27° |
| 2026-04-30 20:24 | 33.97797 | -13.15006 | 36159 ft | 477 kts | 27° |
| 2026-04-30 20:25 | 34.05936 | -13.08182 | 36161 ft | 478 kts | 27° |
| 2026-04-30 20:26 | 34.14114 | -13.01308 | 36160 ft | 478 kts | 27° |
| 2026-04-30 20:26 | 34.22288 | -12.94420 | 36161 ft | 477 kts | 27° |
| 2026-04-30 20:27 | 34.33186 | -12.85260 | 36175 ft | 477 kts | 27° |
| 2026-04-30 20:28 | 34.44103 | -12.76113 | 36167 ft | 477 kts | 27° |
| 2026-04-30 20:30 | 34.57740 | -12.64625 | 36163 ft | 477 kts | 27° |
| 2026-04-30 20:31 | 34.74095 | -12.50785 | 36164 ft | 478 kts | 27° |
| 2026-04-30 20:32 | 34.87718 | -12.39206 | 36191 ft | 478 kts | 27° |
| 2026-04-30 20:33 | 34.95857 | -12.32266 | 36170 ft | 478 kts | 27° |
| 2026-04-30 20:34 | 35.04030 | -12.25278 | 36165 ft | 478 kts | 27° |
| 2026-04-30 20:35 | 35.12191 | -12.18283 | 36167 ft | 478 kts | 27° |
| 2026-04-30 20:35 | 35.20353 | -12.11271 | 36172 ft | 478 kts | 27° |
| 2026-04-30 20:36 | 35.25795 | -12.06586 | 36156 ft | 478 kts | 27° |
| 2026-04-30 20:37 | 35.33948 | -11.99550 | 36166 ft | 478 kts | 27° |
| 2026-04-30 20:37 | 35.39380 | -11.94854 | 36163 ft | 477 kts | 27° |
| 2026-04-30 20:38 | 35.44799 | -11.90160 | 36168 ft | 477 kts | 27° |
| 2026-04-30 20:38 | 35.50217 | -11.85460 | 36168 ft | 477 kts | 27° |
| 2026-04-30 20:39 | 35.58332 | -11.78405 | 36171 ft | 476 kts | 27° |
| 2026-04-30 20:40 | 35.66435 | -11.71343 | 36166 ft | 476 kts | 27° |
| 2026-04-30 20:40 | 35.71835 | -11.66627 | 36175 ft | 476 kts | 28° |
| 2026-04-30 20:41 | 35.79933 | -11.59538 | 36166 ft | 476 kts | 28° |
| 2026-04-30 20:41 | 35.85325 | -11.54808 | 36163 ft | 476 kts | 28° |
| 2026-04-30 20:42 | 35.90677 | -11.50104 | 36164 ft | 476 kts | 28° |
| 2026-04-30 20:43 | 35.99064 | -11.43876 | 36169 ft | 459 kts | 11° |
| 2026-04-30 20:43 | 36.05139 | -11.41736 | 36167 ft | 453 kts | 7° |
| 2026-04-30 20:44 | 36.14282 | -11.38674 | 36161 ft | 455 kts | 7° |
| 2026-04-30 20:45 | 36.26477 | -11.34362 | 36166 ft | 457 kts | 9° |
| 2026-04-30 20:45 | 36.32582 | -11.32196 | 36169 ft | 456 kts | 8° |
| 2026-04-30 20:46 | 36.44825 | -11.28022 | 36163 ft | 457 kts | 9° |
| 2026-04-30 20:47 | 36.54006 | -11.24798 | 36165 ft | 457 kts | 10° |
| 2026-04-30 20:48 | 36.63191 | -11.21559 | 36161 ft | 457 kts | 10° |
| 2026-04-30 20:48 | 36.69271 | -11.19412 | 36163 ft | 457 kts | 10° |
| 2026-04-30 20:49 | 36.75432 | -11.17234 | 36159 ft | 457 kts | 11° |
| 2026-04-30 20:50 | 36.84613 | -11.13981 | 36159 ft | 457 kts | 11° |
| 2026-04-30 20:50 | 36.90690 | -11.11823 | 36161 ft | 457 kts | 11° |
| 2026-04-30 20:51 | 36.96806 | -11.09648 | 36173 ft | 457 kts | 11° |
| 2026-04-30 20:51 | 37.05981 | -11.06378 | 36160 ft | 457 kts | 11° |
| 2026-04-30 20:52 | 37.12096 | -11.04195 | 36161 ft | 457 kts | 11° |
| 2026-04-30 20:53 | 37.21259 | -11.00915 | 36182 ft | 457 kts | 11° |
| 2026-04-30 20:53 | 37.27375 | -10.98722 | 36165 ft | 457 kts | 11° |
| 2026-04-30 20:54 | 37.36539 | -10.95429 | 36160 ft | 457 kts | 11° |
| 2026-04-30 20:55 | 37.45698 | -10.92128 | 36175 ft | 456 kts | 11° |
| 2026-04-30 20:55 | 37.51794 | -10.89927 | 36161 ft | 456 kts | 11° |
| 2026-04-30 20:56 | 37.60936 | -10.86619 | 36159 ft | 455 kts | 12° |
| 2026-04-30 20:57 | 37.70062 | -10.83309 | 36179 ft | 455 kts | 12° |
| 2026-04-30 20:57 | 37.76146 | -10.81097 | 36167 ft | 455 kts | 12° |
| 2026-04-30 20:58 | 37.85263 | -10.77776 | 36164 ft | 454 kts | 12° |
| 2026-04-30 20:58 | 37.91339 | -10.75557 | 36162 ft | 454 kts | 12° |
| 2026-04-30 20:59 | 38.00447 | -10.72224 | 36160 ft | 454 kts | 12° |
| 2026-04-30 21:00 | 38.12593 | -10.67766 | 36165 ft | 454 kts | 12° |
| 2026-04-30 21:01 | 38.21478 | -10.63524 | 36159 ft | 459 kts | 19° |
| 2026-04-30 21:02 | 38.30267 | -10.58661 | 36156 ft | 459 kts | 19° |
| 2026-04-30 21:02 | 38.36146 | -10.55476 | 36158 ft | 459 kts | 19° |
| 2026-04-30 21:03 | 38.41034 | -10.52851 | 36154 ft | 458 kts | 19° |
| 2026-04-30 21:03 | 38.46908 | -10.49697 | 36161 ft | 458 kts | 19° |
| 2026-04-30 21:04 | 38.52776 | -10.46539 | 36153 ft | 457 kts | 19° |
| 2026-04-30 21:04 | 38.61556 | -10.41801 | 36157 ft | 456 kts | 19° |
| 2026-04-30 21:05 | 38.67391 | -10.38645 | 36172 ft | 455 kts | 19° |
| 2026-04-30 21:05 | 38.73220 | -10.35487 | 36158 ft | 455 kts | 19° |
| 2026-04-30 21:06 | 38.79041 | -10.32326 | 36156 ft | 454 kts | 19° |
| 2026-04-30 21:06 | 38.84850 | -10.29167 | 36158 ft | 453 kts | 19° |
| 2026-04-30 21:07 | 38.90652 | -10.26007 | 36170 ft | 453 kts | 19° |
| 2026-04-30 21:07 | 38.96455 | -10.22839 | 36161 ft | 453 kts | 19° |
| 2026-04-30 21:08 | 39.02285 | -10.19792 | 36160 ft | 451 kts | 15° |
| 2026-04-30 21:08 | 39.08223 | -10.17242 | 36163 ft | 450 kts | 13° |
| 2026-04-30 21:09 | 39.14180 | -10.14785 | 36166 ft | 450 kts | 13° |
| 2026-04-30 21:09 | 39.20129 | -10.12281 | 36157 ft | 450 kts | 13° |
| 2026-04-30 21:10 | 39.26073 | -10.09737 | 36155 ft | 450 kts | 14° |
| 2026-04-30 21:10 | 39.32015 | -10.07177 | 36155 ft | 450 kts | 14° |
| 2026-04-30 21:11 | 39.37950 | -10.04615 | 36175 ft | 450 kts | 13° |
| 2026-04-30 21:11 | 39.43895 | -10.02045 | 36159 ft | 450 kts | 13° |
| 2026-04-30 21:12 | 39.49840 | -9.99471 | 36154 ft | 451 kts | 13° |
| 2026-04-30 21:12 | 39.55786 | -9.96893 | 36153 ft | 450 kts | 13° |
| 2026-04-30 21:13 | 39.61689 | -9.94328 | 36167 ft | 450 kts | 13° |
| 2026-04-30 21:13 | 39.67634 | -9.91741 | 36155 ft | 451 kts | 13° |
| 2026-04-30 21:14 | 39.73582 | -9.89147 | 36156 ft | 451 kts | 13° |
| 2026-04-30 21:14 | 39.79529 | -9.86550 | 36156 ft | 451 kts | 13° |
| 2026-04-30 21:15 | 39.85474 | -9.83948 | 36169 ft | 451 kts | 13° |
| 2026-04-30 21:15 | 39.91423 | -9.81339 | 36166 ft | 451 kts | 13° |
| 2026-04-30 21:16 | 39.97372 | -9.78726 | 36151 ft | 451 kts | 13° |
| 2026-04-30 21:16 | 40.03313 | -9.76111 | 36159 ft | 450 kts | 13° |
| 2026-04-30 21:17 | 40.09250 | -9.73494 | 36157 ft | 450 kts | 13° |
| 2026-04-30 21:17 | 40.15184 | -9.70873 | 36155 ft | 450 kts | 13° |
| 2026-04-30 21:18 | 40.21116 | -9.68248 | 36155 ft | 450 kts | 13° |
| 2026-04-30 21:18 | 40.27044 | -9.65620 | 36156 ft | 450 kts | 13° |
| 2026-04-30 21:19 | 40.32968 | -9.62988 | 36148 ft | 449 kts | 13° |
| 2026-04-30 21:19 | 40.38887 | -9.60355 | 36155 ft | 449 kts | 13° |
| 2026-04-30 21:20 | 40.44807 | -9.57727 | 36154 ft | 449 kts | 13° |
| 2026-04-30 21:20 | 40.50695 | -9.55147 | 36156 ft | 449 kts | 13° |
| 2026-04-30 21:21 | 40.56625 | -9.52546 | 36161 ft | 450 kts | 13° |
| 2026-04-30 21:22 | 40.65535 | -9.48620 | 36154 ft | 451 kts | 13° |
| 2026-04-30 21:23 | 40.77445 | -9.43352 | 36160 ft | 452 kts | 15° |
| 2026-04-30 21:23 | 40.86418 | -9.39368 | 36152 ft | 455 kts | 15° |
| 2026-04-30 21:24 | 40.92434 | -9.36692 | 36155 ft | 457 kts | 15° |
| 2026-04-30 21:24 | 40.98468 | -9.33997 | 36157 ft | 459 kts | 16° |
| 2026-04-30 21:25 | 41.07553 | -9.29831 | 36157 ft | 462 kts | 17° |
| 2026-04-30 21:26 | 41.16683 | -9.25620 | 36151 ft | 464 kts | 16° |
| 2026-04-30 21:27 | 41.25852 | -9.21390 | 36146 ft | 466 kts | 17° |
| 2026-04-30 21:27 | 41.31976 | -9.18557 | 36152 ft | 466 kts | 17° |
| 2026-04-30 21:28 | 41.41168 | -9.14292 | 36155 ft | 466 kts | 17° |
| 2026-04-30 21:29 | 41.50357 | -9.10005 | 36153 ft | 466 kts | 18° |
| 2026-04-30 21:30 | 41.65673 | -9.02854 | 36155 ft | 467 kts | 19° |
| 2026-04-30 21:31 | 41.81062 | -8.95641 | 36155 ft | 470 kts | 19° |
| 2026-04-30 21:32 | 41.90266 | -8.91019 | 36154 ft | 472 kts | 25° |
| 2026-04-30 21:32 | 41.96182 | -8.87195 | 36159 ft | 473 kts | 27° |
| 2026-04-30 21:33 | 42.05042 | -8.81310 | 36151 ft | 474 kts | 26° |
| 2026-04-30 21:34 | 42.10975 | -8.77441 | 36157 ft | 474 kts | 26° |
| 2026-04-30 21:34 | 42.19893 | -8.71662 | 36142 ft | 475 kts | 26° |
| 2026-04-30 21:35 | 42.25884 | -8.67772 | 36436 ft | 479 kts | 26° |
| 2026-04-30 21:35 | 42.28878 | -8.65824 | 36756 ft | 477 kts | 26° |
| 2026-04-30 21:35 | 42.31860 | -8.63881 | 37067 ft | 475 kts | 26° |
| 2026-04-30 21:36 | 42.34797 | -8.61965 | 37270 ft | 475 kts | 26° |
| 2026-04-30 21:36 | 42.37812 | -8.59997 | 37518 ft | 475 kts | 26° |
| 2026-04-30 21:37 | 42.46672 | -8.54198 | 38164 ft | 474 kts | 26° |
| 2026-04-30 21:37 | 42.49651 | -8.52245 | 38150 ft | 477 kts | 26° |
| 2026-04-30 21:37 | 42.55612 | -8.48330 | 38151 ft | 474 kts | 26° |
| 2026-04-30 21:38 | 42.61524 | -8.44439 | 38150 ft | 471 kts | 26° |
| 2026-04-30 21:38 | 42.67397 | -8.40565 | 38160 ft | 468 kts | 26° |
| 2026-04-30 21:39 | 42.73244 | -8.36700 | 38166 ft | 467 kts | 26° |
| 2026-04-30 21:39 | 42.79114 | -8.32811 | 38167 ft | 472 kts | 26° |
| 2026-04-30 21:40 | 42.85064 | -8.28861 | 38163 ft | 478 kts | 26° |
| 2026-04-30 21:40 | 42.91060 | -8.24872 | 38164 ft | 481 kts | 26° |
| 2026-04-30 21:41 | 42.97078 | -8.20860 | 38156 ft | 482 kts | 26° |
| 2026-04-30 21:41 | 43.03103 | -8.16835 | 38157 ft | 482 kts | 26° |
| 2026-04-30 21:42 | 43.09110 | -8.12813 | 38156 ft | 480 kts | 26° |
| 2026-04-30 21:42 | 43.15095 | -8.08796 | 38163 ft | 478 kts | 26° |
| 2026-04-30 21:43 | 43.20040 | -8.05471 | 38155 ft | 476 kts | 26° |
| 2026-04-30 21:43 | 43.26971 | -8.00800 | 38162 ft | 473 kts | 26° |
| 2026-04-30 21:44 | 43.32829 | -7.96842 | 38155 ft | 472 kts | 27° |
| 2026-04-30 21:44 | 43.38711 | -7.92860 | 38164 ft | 470 kts | 27° |
| 2026-04-30 21:45 | 43.44576 | -7.88882 | 38163 ft | 470 kts | 27° |
| 2026-04-30 21:45 | 43.50446 | -7.84890 | 38167 ft | 471 kts | 27° |
| 2026-04-30 21:46 | 43.56317 | -7.80889 | 38165 ft | 472 kts | 27° |
| 2026-04-30 21:46 | 43.62208 | -7.76866 | 38163 ft | 473 kts | 27° |
| 2026-04-30 21:47 | 43.67934 | -7.72948 | 38166 ft | 474 kts | 27° |
| 2026-04-30 21:47 | 43.73854 | -7.68887 | 38171 ft | 475 kts | 27° |
| 2026-04-30 21:48 | 43.79460 | -7.65033 | 38177 ft | 476 kts | 27° |
| 2026-04-30 21:48 | 43.85371 | -7.60962 | 38163 ft | 477 kts | 27° |
| 2026-04-30 21:49 | 43.90361 | -7.57517 | 38164 ft | 476 kts | 27° |
| 2026-04-30 21:49 | 43.94902 | -7.54376 | 38158 ft | 476 kts | 27° |
| 2026-04-30 21:50 | 44.00707 | -7.50354 | 38170 ft | 475 kts | 27° |
| 2026-04-30 21:50 | 44.06566 | -7.46286 | 38162 ft | 475 kts | 27° |
| 2026-04-30 21:51 | 44.12418 | -7.42214 | 38169 ft | 473 kts | 27° |
| 2026-04-30 21:51 | 44.18230 | -7.38160 | 38170 ft | 472 kts | 27° |
| 2026-04-30 21:52 | 44.24097 | -7.34058 | 38171 ft | 471 kts | 27° |
| 2026-04-30 21:52 | 44.29943 | -7.29962 | 38170 ft | 470 kts | 27° |
| 2026-04-30 21:53 | 44.35781 | -7.25863 | 38170 ft | 469 kts | 27° |
| 2026-04-30 21:53 | 44.41555 | -7.21799 | 38155 ft | 468 kts | 27° |
| 2026-04-30 21:54 | 44.47277 | -7.17763 | 38171 ft | 468 kts | 27° |
| 2026-04-30 21:54 | 44.52925 | -7.13770 | 38178 ft | 467 kts | 27° |
| 2026-04-30 21:55 | 44.58647 | -7.09716 | 38178 ft | 468 kts | 27° |
| 2026-04-30 21:55 | 44.64422 | -7.05616 | 38178 ft | 468 kts | 27° |
| 2026-04-30 21:56 | 44.70173 | -7.01523 | 38178 ft | 469 kts | 27° |
| 2026-04-30 21:56 | 44.75948 | -6.97403 | 38178 ft | 469 kts | 27° |
| 2026-04-30 21:57 | 44.81781 | -6.93234 | 38179 ft | 470 kts | 27° |
| 2026-04-30 21:57 | 44.87546 | -6.88854 | 38179 ft | 471 kts | 30° |
| 2026-04-30 21:58 | 44.93169 | -6.84183 | 38169 ft | 471 kts | 31° |
| 2026-04-30 21:58 | 44.98760 | -6.79497 | 38179 ft | 471 kts | 31° |
| 2026-04-30 21:59 | 45.04396 | -6.74812 | 38181 ft | 472 kts | 31° |
| 2026-04-30 22:00 | 45.12890 | -6.67778 | 38179 ft | 473 kts | 31° |
| 2026-04-30 22:00 | 45.21389 | -6.60721 | 38183 ft | 473 kts | 30° |
| 2026-04-30 22:01 | 45.27063 | -6.55995 | 38165 ft | 473 kts | 30° |
| 2026-04-30 22:01 | 45.32726 | -6.51266 | 38180 ft | 472 kts | 30° |
| 2026-04-30 22:02 | 45.38393 | -6.46523 | 38179 ft | 472 kts | 30° |
| 2026-04-30 22:02 | 45.44049 | -6.41777 | 38179 ft | 472 kts | 30° |
| 2026-04-30 22:03 | 45.49703 | -6.37023 | 38180 ft | 472 kts | 30° |
| 2026-04-30 22:03 | 45.55347 | -6.32265 | 38179 ft | 471 kts | 30° |
| 2026-04-30 22:04 | 45.60986 | -6.27500 | 38193 ft | 471 kts | 30° |
| 2026-04-30 22:05 | 45.69446 | -6.20331 | 38182 ft | 471 kts | 30° |
| 2026-04-30 22:05 | 45.75073 | -6.15548 | 38179 ft | 470 kts | 30° |
| 2026-04-30 22:06 | 45.80700 | -6.10754 | 38182 ft | 470 kts | 30° |
| 2026-04-30 22:06 | 45.89094 | -6.03581 | 38182 ft | 470 kts | 30° |
| 2026-04-30 22:07 | 45.94714 | -5.98765 | 38183 ft | 470 kts | 30° |
| 2026-04-30 22:07 | 46.00335 | -5.93937 | 38168 ft | 470 kts | 30° |
| 2026-04-30 22:08 | 46.05944 | -5.89106 | 38187 ft | 470 kts | 30° |
| 2026-04-30 22:08 | 46.11556 | -5.84261 | 38180 ft | 470 kts | 30° |
| 2026-04-30 22:09 | 46.17159 | -5.79413 | 38182 ft | 470 kts | 30° |
| 2026-04-30 22:09 | 46.22761 | -5.74554 | 38182 ft | 469 kts | 30° |
| 2026-04-30 22:10 | 46.28356 | -5.69689 | 38182 ft | 469 kts | 30° |
| 2026-04-30 22:10 | 46.33903 | -5.64855 | 38183 ft | 469 kts | 30° |
| 2026-04-30 22:11 | 46.42271 | -5.57539 | 38181 ft | 468 kts | 30° |
| 2026-04-30 22:12 | 46.47837 | -5.52658 | 38175 ft | 467 kts | 30° |
| 2026-04-30 22:12 | 46.53385 | -5.47780 | 38175 ft | 466 kts | 30° |
| 2026-04-30 22:13 | 46.58924 | -5.42900 | 38176 ft | 465 kts | 30° |
| 2026-04-30 22:13 | 46.64449 | -5.38023 | 38176 ft | 464 kts | 30° |
| 2026-04-30 22:14 | 46.69963 | -5.33148 | 38174 ft | 463 kts | 30° |
| 2026-04-30 22:14 | 46.75467 | -5.28269 | 38153 ft | 463 kts | 30° |
| 2026-04-30 22:15 | 46.80959 | -5.23387 | 38168 ft | 462 kts | 30° |
| 2026-04-30 22:15 | 46.86436 | -5.18506 | 38176 ft | 461 kts | 30° |
| 2026-04-30 22:16 | 46.91908 | -5.13619 | 38175 ft | 460 kts | 30° |
| 2026-04-30 22:17 | 47.02819 | -5.03837 | 38172 ft | 459 kts | 30° |
| 2026-04-30 22:17 | 47.10992 | -4.96479 | 38174 ft | 459 kts | 31° |
| 2026-04-30 22:18 | 47.19152 | -4.89107 | 38168 ft | 459 kts | 31° |
| 2026-04-30 22:19 | 47.27264 | -4.81750 | 38168 ft | 458 kts | 31° |
| 2026-04-30 22:20 | 47.35395 | -4.74349 | 38167 ft | 458 kts | 31° |
| 2026-04-30 22:20 | 47.43517 | -4.66929 | 38162 ft | 457 kts | 31° |
| 2026-04-30 22:21 | 47.48923 | -4.61975 | 38161 ft | 457 kts | 31° |
| 2026-04-30 22:21 | 47.54327 | -4.57011 | 38160 ft | 457 kts | 31° |
| 2026-04-30 22:22 | 47.59728 | -4.52038 | 38159 ft | 457 kts | 31° |
| 2026-04-30 22:22 | 47.65133 | -4.47047 | 38153 ft | 457 kts | 31° |
| 2026-04-30 22:23 | 47.70531 | -4.42051 | 38153 ft | 458 kts | 31° |
| 2026-04-30 22:23 | 47.75935 | -4.37038 | 38153 ft | 458 kts | 31° |
| 2026-04-30 22:24 | 47.81366 | -4.32084 | 38149 ft | 458 kts | 26° |
| 2026-04-30 22:24 | 47.87318 | -4.28853 | 38168 ft | 456 kts | 14° |
| 2026-04-30 22:25 | 47.93440 | -4.26347 | 38171 ft | 456 kts | 14° |
| 2026-04-30 22:25 | 47.99561 | -4.23818 | 38166 ft | 457 kts | 14° |
| 2026-04-30 22:26 | 48.08732 | -4.19908 | 38155 ft | 457 kts | 15° |
| 2026-04-30 22:27 | 48.14788 | -4.17295 | 38150 ft | 456 kts | 15° |
| 2026-04-30 22:27 | 48.23928 | -4.13340 | 38149 ft | 455 kts | 15° |
| 2026-04-30 22:28 | 48.33046 | -4.09384 | 38149 ft | 454 kts | 15° |
| 2026-04-30 22:29 | 48.45172 | -4.04101 | 38147 ft | 453 kts | 15° |
| 2026-04-30 22:31 | 48.66375 | -3.94797 | 38140 ft | 454 kts | 15° |
| 2026-04-30 22:32 | 48.80897 | -3.88377 | 38147 ft | 454 kts | 15° |
| 2026-04-30 22:33 | 48.94122 | -3.82498 | 38144 ft | 454 kts | 15° |
| 2026-04-30 22:34 | 49.01992 | -3.80439 | 38172 ft | 451 kts | 1° |
| 2026-04-30 22:35 | 49.07585 | -3.80198 | 38142 ft | 451 kts | 0° |
| 2026-04-30 22:36 | 49.22322 | -3.79413 | 38142 ft | 451 kts | 1° |
| 2026-04-30 22:37 | 49.34330 | -3.78672 | 38142 ft | 452 kts | 1° |
| 2026-04-30 22:38 | 49.46478 | -3.77925 | 38143 ft | 452 kts | 1° |
| 2026-04-30 22:39 | 49.54581 | -3.77425 | 38143 ft | 453 kts | 2° |
| 2026-04-30 22:40 | 49.72844 | -3.76213 | 38131 ft | 454 kts | 4° |
| 2026-04-30 22:41 | 49.88256 | -3.74286 | 38131 ft | 456 kts | 4° |
| 2026-04-30 22:43 | 50.07115 | -3.72027 | 38132 ft | 457 kts | 4° |
| 2026-04-30 22:44 | 50.19806 | -3.70503 | 38130 ft | 458 kts | 4° |
| 2026-04-30 22:45 | 50.38833 | -3.68200 | 38134 ft | 458 kts | 4° |
| 2026-04-30 22:47 | 50.57802 | -3.64773 | 38128 ft | 456 kts | 7° |
| 2026-04-30 22:48 | 50.70390 | -3.62384 | 38131 ft | 455 kts | 7° |
| 2026-04-30 22:49 | 50.89193 | -3.58764 | 38125 ft | 453 kts | 7° |
| 2026-04-30 22:51 | 51.07967 | -3.55118 | 38130 ft | 453 kts | 7° |
| 2026-04-30 22:52 | 51.17355 | -3.53284 | 38126 ft | 454 kts | 7° |
| 2026-04-30 22:53 | 51.29552 | -3.50893 | 38130 ft | 455 kts | 7° |
| 2026-04-30 22:53 | 51.38988 | -3.49041 | 38135 ft | 456 kts | 7° |
| 2026-04-30 22:55 | 51.54773 | -3.45924 | 38124 ft | 459 kts | 7° |
| 2026-04-30 22:56 | 51.67471 | -3.43399 | 38140 ft | 461 kts | 7° |
| 2026-04-30 22:57 | 51.83424 | -3.40208 | 38151 ft | 463 kts | 7° |
| 2026-04-30 22:57 | 51.89862 | -3.38913 | 37331 ft | 466 kts | 7° |
| 2026-04-30 22:58 | 51.96288 | -3.37875 | 36247 ft | 463 kts | 4° |
| 2026-04-30 22:59 | 52.05962 | -3.37283 | 34497 ft | 465 kts | 2° |
| 2026-04-30 22:59 | 52.15699 | -3.36654 | 32498 ft | 467 kts | 3° |